Time,TemperatureF,DewpointF,PressureIn,WindDirection,WindDirectionDegrees,WindSpeedMPH,WindSpeedGustMPH,Humidity,HourlyPrecipIn,Conditions,Clouds,dailyrainin,SoftwareType,DateUTC
2013-05-08 00:32:00,60.0,-99.9,-100.00,North,7,8.0,12.0,-999,-99.99,,,-99.99,,2013-05-08 07:32:00,
2013-05-08 00:42:00,60.0,-99.9,-100.00,North,7,8.0,12.0,-999,-99.99,,,-99.99,,2013-05-08 07:42:00,
2013-05-08 01:22:00,58.0,-99.9,-100.00,North,2,5.0,9.0,-999,-99.99,,,-99.99,,2013-05-08 08:22:00,
2013-05-08 01:32:00,58.0,-99.9,-100.00,NNE,22,6.0,7.0,-999,-99.99,,,-99.99,,2013-05-08 08:32:00,
2013-05-08 01:43:00,58.0,-99.9,-100.00,NNE,22,6.0,7.0,-999,-99.99,,,-99.99,,2013-05-08 08:43:00,
2013-05-08 01:52:00,58.0,-99.9,-100.00,NNE,22,6.0,7.0,-999,-99.99,,,-99.99,,2013-05-08 08:52:00,
2013-05-08 02:02:00,57.0,-99.9,-100.00,South,171,5.0,8.0,-999,-99.99,,,-99.99,,2013-05-08 09:02:00,
2013-05-08 02:11:00,57.0,-99.9,-100.00,South,171,5.0,8.0,-999,-99.99,,,-99.99,,2013-05-08 09:11:00,
2013-05-08 02:22:00,57.0,-99.9,-100.00,South,171,5.0,8.0,-999,-99.99,,,-99.99,,2013-05-08 09:22:00,
2013-05-08 02:50:00,55.0,-99.9,-100.00,SSE,162,0.0,4.0,-999,-99.99,,,-99.99,,2013-05-08 09:50:00,
2013-05-08 03:03:00,56.0,-99.9,-100.00,NNE,13,10.0,11.0,-999,-99.99,,,-99.99,,2013-05-08 10:03:00,
2013-05-08 03:12:00,56.0,-99.9,-100.00,NNE,13,10.0,11.0,-999,-99.99,,,-99.99,,2013-05-08 10:12:00,
2013-05-08 03:23:00,56.0,-99.9,-100.00,SSE,166,8.0,8.0,-999,-99.99,,,-99.99,,2013-05-08 10:23:00,
2013-05-08 03:33:00,55.0,-99.9,-100.00,SSE,162,0.0,4.0,-999,-99.99,,,-99.99,,2013-05-08 10:33:00,
2013-05-08 03:42:00,55.0,-99.9,-100.00,SSE,162,0.0,4.0,-999,-99.99,,,-99.99,,2013-05-08 10:42:00,
2013-05-08 04:22:00,54.0,-99.9,-100.00,NNE,18,7.0,10.0,-999,-99.99,,,-99.99,,2013-05-08 11:22:00,
2013-05-08 04:30:00,54.0,-99.9,-100.00,NNW,342,2.0,7.0,-999,-99.99,,,-99.99,,2013-05-08 11:30:00,
2013-05-08 04:33:00,54.0,-99.9,-100.00,NNE,18,7.0,10.0,-999,-99.99,,,-99.99,,2013-05-08 11:33:00,
2013-05-08 04:42:00,54.0,-99.9,-100.00,NNE,18,7.0,10.0,-999,-99.99,,,-99.99,,2013-05-08 11:42:00,
2013-05-08 05:22:00,54.0,-99.9,-100.00,NNW,342,2.0,7.0,-999,-99.99,,,-99.99,,2013-05-08 12:22:00,
2013-05-08 06:00:00,54.0,-99.9,-100.00,SSE,159,2.0,4.0,-999,-99.99,,,-99.99,,2013-05-08 13:00:00,
2013-05-08 06:52:00,54.0,-99.9,-100.00,SSE,159,2.0,4.0,-999,-99.99,,,-99.99,,2013-05-08 13:52:00,
2013-05-08 07:22:00,54.0,-99.9,-100.00,ESE,117,4.0,10.0,-999,-99.99,,,-99.99,,2013-05-08 14:22:00,
2013-05-08 07:32:00,54.0,-99.9,-100.00,ESE,117,4.0,10.0,-999,-99.99,,,-99.99,,2013-05-08 14:32:00,
2013-05-08 08:22:00,58.0,-99.9,-100.00,NNE,28,12.0,13.0,-999,-99.99,,,-99.99,,2013-05-08 15:22:00,
2013-05-08 08:33:00,58.0,-99.9,-100.00,NNE,28,12.0,13.0,-999,-99.99,,,-99.99,,2013-05-08 15:33:00,
2013-05-08 08:53:00,61.0,-99.9,-100.00,NNE,16,9.0,16.0,-999,-99.99,,,-99.99,,2013-05-08 15:53:00,
2013-05-08 09:03:00,61.0,-99.9,-100.00,NNE,16,9.0,16.0,-999,-99.99,,,-99.99,,2013-05-08 16:03:00,
2013-05-08 09:13:00,61.0,-99.9,-100.00,NNE,16,9.0,16.0,-999,-99.99,,,-99.99,,2013-05-08 16:13:00,
2013-05-08 09:52:00,63.0,-99.9,-100.00,NW,315,6.0,11.0,-999,-99.99,,,-99.99,,2013-05-08 16:52:00,
2013-05-08 10:02:00,63.0,-99.9,-100.00,NW,315,6.0,11.0,-999,-99.99,,,-99.99,,2013-05-08 17:02:00,
2013-05-08 10:52:00,65.0,-99.9,-100.00,NNE,12,6.0,12.0,-999,-99.99,,,-99.99,,2013-05-08 17:52:00,
2013-05-08 11:32:00,69.0,-99.9,-100.00,North,9,3.0,7.0,-999,-99.99,,,-99.99,,2013-05-08 18:32:00,
2013-05-08 11:42:00,69.0,-99.9,-100.00,North,9,3.0,7.0,-999,-99.99,,,-99.99,,2013-05-08 18:42:00,
2013-05-08 11:52:00,69.0,-99.9,-100.00,North,9,3.0,7.0,-999,-99.99,,,-99.99,,2013-05-08 18:52:00,
2013-05-08 12:02:00,70.0,-99.9,-100.00,NW,318,9.0,9.0,-999,-99.99,,,-99.99,,2013-05-08 19:02:00,
2013-05-08 12:11:00,70.0,-99.9,-100.00,NW,318,9.0,9.0,-999,-99.99,,,-99.99,,2013-05-08 19:11:00,
2013-05-08 12:22:00,70.0,-99.9,-100.00,NW,318,9.0,9.0,-999,-99.99,,,-99.99,,2013-05-08 19:22:00,
2013-05-08 12:52:00,72.0,-99.9,-100.00,North,351,5.0,13.0,-999,-99.99,,,-99.99,,2013-05-08 19:52:00,
2013-05-08 13:00:00,73.0,-99.9,-100.00,WNW,302,10.0,13.0,-999,-99.99,,,-99.99,,2013-05-08 20:00:00,
2013-05-08 13:02:00,73.0,-99.9,-100.00,ESE,119,2.0,8.0,-999,-99.99,,,-99.99,,2013-05-08 20:02:00,
2013-05-08 13:12:00,73.0,-99.9,-100.00,ESE,119,2.0,8.0,-999,-99.99,,,-99.99,,2013-05-08 20:12:00,
2013-05-08 13:22:00,73.0,-99.9,-100.00,ESE,119,2.0,8.0,-999,-99.99,,,-99.99,,2013-05-08 20:22:00,
2013-05-08 13:52:00,73.0,-99.9,-100.00,WNW,302,10.0,13.0,-999,-99.99,,,-99.99,,2013-05-08 20:52:00,
2013-05-08 14:40:00,76.0,-99.9,-100.00,North,358,5.0,9.0,-999,-99.99,,,-99.99,,2013-05-08 21:40:00,
2013-05-08 15:03:00,75.0,-99.9,-100.00,WSW,238,0.0,6.0,-999,-99.99,,,-99.99,,2013-05-08 22:03:00,
2013-05-08 15:10:00,76.0,-99.9,-100.00,WSW,256,7.0,7.0,-999,-99.99,,,-99.99,,2013-05-08 22:10:00,
2013-05-08 15:12:00,75.0,-99.9,-100.00,WSW,238,0.0,6.0,-999,-99.99,,,-99.99,,2013-05-08 22:12:00,
2013-05-08 15:23:00,76.0,-99.9,-100.00,North,358,5.0,9.0,-999,-99.99,,,-99.99,,2013-05-08 22:23:00,
2013-05-08 15:33:00,76.0,-99.9,-100.00,North,358,5.0,9.0,-999,-99.99,,,-99.99,,2013-05-08 22:33:00,
2013-05-08 15:50:00,77.0,-99.9,-100.00,NW,314,4.0,5.0,-999,-99.99,,,-99.99,,2013-05-08 22:50:00,
2013-05-08 15:53:00,76.0,-99.9,-100.00,WSW,256,7.0,7.0,-999,-99.99,,,-99.99,,2013-05-08 22:53:00,
2013-05-08 16:02:00,76.0,-99.9,-100.00,WSW,256,7.0,7.0,-999,-99.99,,,-99.99,,2013-05-08 23:02:00,
2013-05-08 16:22:00,76.0,-99.9,-100.00,WNW,292,5.0,9.0,-999,-99.99,,,-99.99,,2013-05-08 23:22:00,
2013-05-08 16:33:00,77.0,-99.9,-100.00,NW,314,4.0,5.0,-999,-99.99,,,-99.99,,2013-05-08 23:33:00,
2013-05-08 16:40:00,77.0,-99.9,-100.00,West,261,3.0,4.0,-999,-99.99,,,-99.99,,2013-05-08 23:40:00,
2013-05-08 16:42:00,77.0,-99.9,-100.00,NW,314,4.0,5.0,-999,-99.99,,,-99.99,,2013-05-08 23:42:00,
2013-05-08 17:02:00,76.0,-99.9,-100.00,NW,306,7.0,13.0,-999,-99.99,,,-99.99,,2013-05-09 00:02:00,
2013-05-08 17:12:00,76.0,-99.9,-100.00,NW,306,7.0,13.0,-999,-99.99,,,-99.99,,2013-05-09 00:12:00,
2013-05-08 17:20:00,76.0,-99.9,-100.00,WNW,295,2.0,11.0,-999,-99.99,,,-99.99,,2013-05-09 00:20:00,
2013-05-08 17:22:00,77.0,-99.9,-100.00,West,261,3.0,4.0,-999,-99.99,,,-99.99,,2013-05-09 00:22:00,
2013-05-08 17:32:00,77.0,-99.9,-100.00,West,261,3.0,4.0,-999,-99.99,,,-99.99,,2013-05-09 00:32:00,
2013-05-08 18:02:00,76.0,-99.9,-100.00,WNW,295,2.0,11.0,-999,-99.99,,,-99.99,,2013-05-09 01:02:00,
2013-05-08 18:12:00,76.0,-99.9,-100.00,WNW,295,2.0,11.0,-999,-99.99,,,-99.99,,2013-05-09 01:12:00,
2013-05-08 19:20:00,75.0,-99.9,-100.00,NNW,348,3.0,8.0,-999,-99.99,,,-99.99,,2013-05-09 02:20:00,
2013-05-08 20:02:00,75.0,-99.9,-100.00,NNW,348,3.0,8.0,-999,-99.99,,,-99.99,,2013-05-09 03:02:00,
2013-05-08 20:11:00,75.0,-99.9,-100.00,NNW,348,3.0,8.0,-999,-99.99,,,-99.99,,2013-05-09 03:11:00,
2013-05-08 22:20:00,67.0,-99.9,-100.00,North,351,9.0,12.0,-999,-99.99,,,-99.99,,2013-05-09 05:20:00,
2013-05-08 23:00:00,65.0,-99.9,-100.00,NNW,342,6.0,12.0,-999,-99.99,,,-99.99,,2013-05-09 06:00:00,
2013-05-08 23:02:00,67.0,-99.9,-100.00,North,351,9.0,12.0,-999,-99.99,,,-99.99,,2013-05-09 06:02:00,
2013-05-08 23:12:00,67.0,-99.9,-100.00,North,351,9.0,12.0,-999,-99.99,,,-99.99,,2013-05-09 06:12:00,
2013-05-08 23:52:00,65.0,-99.9,-100.00,NNW,342,6.0,12.0,-999,-99.99,,,-99.99,,2013-05-09 06:52:00,